Weather at Pikes Point Airport [CLOSED]

Public forecast

Using degrees Celsius for public forecast. Weather courtesy of forecast.io.

Closest aviation weather report (METAR) to Pikes Point Airport

Closest report is Auckland International Airport, 4.9 nm (9.0 km) SSW. Retrieved 2021/01/26 20:30 UTC (2 minutes ago):

NZAA 262030Z AUTO 14005KT 9999 OVC011/// 20/17 Q1016 BECMG TL2200 SCT020 BECMG FM2200 24010KT

Closest aviation forecast (TAF) to Pikes Point Airport

Closest forecast is Auckland International Airport, 4.9 nm (9.0 km) SSW. Retrieved 2021/01/26 18:03 UTC (2 hours ago):

TAF TAF NZAA 261702Z 2618/2718 18005KT 9999 BKN012 BECMG 2618/2620 SCT020 BECMG 2622/2700 24010KT BECMG 2707/2709 18005KT TEMPO 2712/2718 BKN014